sensor_id;sensor_type;location;lat;lon;timestamp;P1;durP1;ratioP1;P2;durP2;ratioP2
77953;SDS011;67151;52.544;6.034;2023-05-19T00:00:02;3.5;;;1.3;;
77953;SDS011;67151;52.544;6.034;2023-05-19T00:00:18;2.3;;;1.3;;
77953;SDS011;67151;52.544;6.034;2023-05-19T00:00:32;2.4;;;1.3;;
77953;SDS011;67151;52.544;6.034;2023-05-19T00:00:47;2.2;;;1.3;;
77953;SDS011;67151;52.544;6.034;2023-05-19T00:01:02;1.8;;;1.3;;
77953;SDS011;67151;52.544;6.034;2023-05-19T00:01:27;1.6;;;1.1;;
77953;SDS011;67151;52.544;6.034;2023-05-19T00:01:32;1.9;;;1.2;;
77953;SDS011;67151;52.544;6.034;2023-05-19T00:01:48;2.3;;;1.4;;
77953;SDS011;67151;52.544;6.034;2023-05-19T00:02:02;2.3;;;1.3;;
77953;SDS011;67151;52.544;6.034;2023-05-19T00:02:17;2;;;1.2;;
77953;SDS011;67151;52.544;6.034;2023-05-19T00:02:32;2;;;1.2;;
77953;SDS011;67151;52.544;6.034;2023-05-19T00:02:47;2.1;;;1.3;;
77953;SDS011;67151;52.544;6.034;2023-05-19T00:03:02;1.9;;;1.3;;
77953;SDS011;67151;52.544;6.034;2023-05-19T00:03:17;2.3;;;1.2;;
77953;SDS011;67151;52.544;6.034;2023-05-19T00:03:33;2.7;;;1.5;;
77953;SDS011;67151;52.544;6.034;2023-05-19T00:03:48;2.1;;;1.4;;
77953;SDS011;67151;52.544;6.034;2023-05-19T00:04:02;2.4;;;1.2;;
77953;SDS011;67151;52.544;6.034;2023-05-19T00:04:17;2.5;;;1.3;;
77953;SDS011;67151;52.544;6.034;2023-05-19T00:04:32;2.2;;;1.2;;
77953;SDS011;67151;52.544;6.034;2023-05-19T00:04:48;2.2;;;1.2;;
77953;SDS011;67151;52.544;6.034;2023-05-19T00:05:02;2.1;;;1.3;;
77953;SDS011;67151;52.544;6.034;2023-05-19T00:05:18;1.9;;;1.2;;
77953;SDS011;67151;52.544;6.034;2023-05-19T00:05:32;2.3;;;1.3;;
77953;SDS011;67151;52.544;6.034;2023-05-19T00:05:47;2.4;;;1.3;;
77953;SDS011;67151;52.544;6.034;2023-05-19T00:06:02;1.9;;;1.2;;
77953;SDS011;67151;52.544;6.034;2023-05-19T00:06:20;2.3;;;1.3;;
77953;SDS011;67151;52.544;6.034;2023-05-19T00:06:32;2.4;;;1.4;;
77953;SDS011;67151;52.544;6.034;2023-05-19T00:06:48;2;;;1.2;;
77953;SDS011;67151;52.544;6.034;2023-05-19T00:07:02;1.9;;;1.2;;
77953;SDS011;67151;52.544;6.034;2023-05-19T00:07:17;1.9;;;1.1;;
77953;SDS011;67151;52.544;6.034;2023-05-19T00:07:32;2.2;;;1.1;;
77953;SDS011;67151;52.544;6.034;2023-05-19T00:07:47;2.3;;;1.1;;
77953;SDS011;67151;52.544;6.034;2023-05-19T00:08:02;1.7;;;1.1;;
77953;SDS011;67151;52.544;6.034;2023-05-19T00:08:18;2;;;1.2;;
77953;SDS011;67151;52.544;6.034;2023-05-19T00:08:33;2.1;;;1.2;;
77953;SDS011;67151;52.544;6.034;2023-05-19T00:08:47;1.8;;;1.2;;
77953;SDS011;67151;52.544;6.034;2023-05-19T00:09:03;2;;;1.2;;
77953;SDS011;67151;52.544;6.034;2023-05-19T00:09:17;2.9;;;1.4;;
77953;SDS011;67151;52.544;6.034;2023-05-19T00:09:32;2.8;;;1.3;;
77953;SDS011;67151;52.544;6.034;2023-05-19T00:09:47;2.4;;;1.3;;
77953;SDS011;67151;52.544;6.034;2023-05-19T00:10:02;2.4;;;1.4;;
77953;SDS011;67151;52.544;6.034;2023-05-19T00:10:17;2.4;;;1.3;;
77953;SDS011;67151;52.544;6.034;2023-05-19T00:10:32;1.9;;;1.2;;
77953;SDS011;67151;52.544;6.034;2023-05-19T00:10:47;2.2;;;1.3;;
77953;SDS011;67151;52.544;6.034;2023-05-19T00:11:03;2.8;;;1.4;;
77953;SDS011;67151;52.544;6.034;2023-05-19T00:11:18;2.1;;;1.2;;
77953;SDS011;67151;52.544;6.034;2023-05-19T00:11:32;1.5;;;1;;
77953;SDS011;67151;52.544;6.034;2023-05-19T00:11:47;1.6;;;1.1;;
77953;SDS011;67151;52.544;6.034;2023-05-19T00:12:03;2;;;1.2;;
77953;SDS011;67151;52.544;6.034;2023-05-19T00:12:18;2.2;;;1.3;;
77953;SDS011;67151;52.544;6.034;2023-05-19T00:12:33;2.3;;;1.5;;
77953;SDS011;67151;52.544;6.034;2023-05-19T00:12:47;2.6;;;1.5;;
77953;SDS011;67151;52.544;6.034;2023-05-19T00:13:02;2.4;;;1.3;;
77953;SDS011;67151;52.544;6.034;2023-05-19T00:13:17;2.4;;;1.2;;
77953;SDS011;67151;52.544;6.034;2023-05-19T00:13:32;3;;;1.3;;
77953;SDS011;67151;52.544;6.034;2023-05-19T00:13:47;3.1;;;1.5;;
77953;SDS011;67151;52.544;6.034;2023-05-19T00:14:03;2.6;;;1.5;;
77953;SDS011;67151;52.544;6.034;2023-05-19T00:14:17;2;;;1.4;;
77953;SDS011;67151;52.544;6.034;2023-05-19T00:14:32;1.8;;;1.3;;
77953;SDS011;67151;52.544;6.034;2023-05-19T00:14:47;1.7;;;1.2;;
77953;SDS011;67151;52.544;6.034;2023-05-19T00:15:02;2.5;;;1.3;;
77953;SDS011;67151;52.544;6.034;2023-05-19T00:15:17;2.3;;;1.2;;
77953;SDS011;67151;52.544;6.034;2023-05-19T00:15:33;2.4;;;1.2;;
77953;SDS011;67151;52.544;6.034;2023-05-19T00:15:47;2.8;;;1.3;;
77953;SDS011;67151;52.544;6.034;2023-05-19T00:16:03;2.9;;;1.2;;
77953;SDS011;67151;52.544;6.034;2023-05-19T00:16:17;2.5;;;1.1;;
77953;SDS011;67151;52.544;6.034;2023-05-19T00:16:32;1.6;;;1.1;;
77953;SDS011;67151;52.544;6.034;2023-05-19T00:16:48;1.8;;;1.2;;
77953;SDS011;67151;52.544;6.034;2023-05-19T00:17:02;1.6;;;1.1;;
77953;SDS011;67151;52.544;6.034;2023-05-19T00:17:17;1.7;;;1;;
77953;SDS011;67151;52.544;6.034;2023-05-19T00:17:32;2.1;;;1.1;;
77953;SDS011;67151;52.544;6.034;2023-05-19T00:17:47;2.5;;;1.2;;
77953;SDS011;67151;52.544;6.034;2023-05-19T00:18:02;2.6;;;1.2;;
77953;SDS011;67151;52.544;6.034;2023-05-19T00:18:17;2.3;;;1.2;;
77953;SDS011;67151;52.544;6.034;2023-05-19T00:18:32;3;;;1.2;;
77953;SDS011;67151;52.544;6.034;2023-05-19T00:18:47;2.7;;;1.3;;
77953;SDS011;67151;52.544;6.034;2023-05-19T00:19:03;2.4;;;1.3;;
77953;SDS011;67151;52.544;6.034;2023-05-19T00:19:17;2.8;;;1.3;;
77953;SDS011;67151;52.544;6.034;2023-05-19T00:19:32;2.3;;;1.2;;
77953;SDS011;67151;52.544;6.034;2023-05-19T00:19:47;2.2;;;1.2;;
77953;SDS011;67151;52.544;6.034;2023-05-19T00:20:03;2.2;;;1.3;;
77953;SDS011;67151;52.544;6.034;2023-05-19T00:20:17;2.7;;;1.4;;
77953;SDS011;67151;52.544;6.034;2023-05-19T00:20:32;2.8;;;1.5;;
77953;SDS011;67151;52.544;6.034;2023-05-19T00:20:47;2.3;;;1.4;;
77953;SDS011;67151;52.544;6.034;2023-05-19T00:21:02;2.4;;;1.4;;
77953;SDS011;67151;52.544;6.034;2023-05-19T00:21:18;2.6;;;1.2;;
77953;SDS011;67151;52.544;6.034;2023-05-19T00:21:32;2.9;;;1.1;;
77953;SDS011;67151;52.544;6.034;2023-05-19T00:21:47;2.7;;;1.2;;
77953;SDS011;67151;52.544;6.034;2023-05-19T00:22:02;2.3;;;1.3;;
77953;SDS011;67151;52.544;6.034;2023-05-19T00:22:17;2.3;;;1.3;;
77953;SDS011;67151;52.544;6.034;2023-05-19T00:22:32;2.1;;;1.1;;
77953;SDS011;67151;52.544;6.034;2023-05-19T00:22:47;2.4;;;1.2;;
77953;SDS011;67151;52.544;6.034;2023-05-19T00:23:02;2.7;;;1.3;;
77953;SDS011;67151;52.544;6.034;2023-05-19T00:23:17;2.2;;;1.3;;
77953;SDS011;67151;52.544;6.034;2023-05-19T00:23:32;1.8;;;1.3;;
77953;SDS011;67151;52.544;6.034;2023-05-19T00:23:47;1.6;;;1.2;;
77953;SDS011;67151;52.544;6.034;2023-05-19T00:24:02;1.3;;;1;;
77953;SDS011;67151;52.544;6.034;2023-05-19T00:24:17;1.4;;;1;;
77953;SDS011;67151;52.544;6.034;2023-05-19T00:24:33;1.6;;;1.1;;
77953;SDS011;67151;52.544;6.034;2023-05-19T00:24:47;2;;;1.2;;
77953;SDS011;67151;52.544;6.034;2023-05-19T00:25:02;2.6;;;1.2;;
77953;SDS011;67151;52.544;6.034;2023-05-19T00:25:17;2.7;;;1.2;;
77953;SDS011;67151;52.544;6.034;2023-05-19T00:25:32;2.4;;;1.2;;
77953;SDS011;67151;52.544;6.034;2023-05-19T00:25:47;1.9;;;1.1;;
77953;SDS011;67151;52.544;6.034;2023-05-19T00:26:02;2.3;;;1.1;;
77953;SDS011;67151;52.544;6.034;2023-05-19T00:26:17;2.8;;;1.3;;
77953;SDS011;67151;52.544;6.034;2023-05-19T00:26:32;2.6;;;1.1;;
77953;SDS011;67151;52.544;6.034;2023-05-19T00:26:47;2.3;;;1;;
77953;SDS011;67151;52.544;6.034;2023-05-19T00:27:02;2;;;1.2;;
77953;SDS011;67151;52.544;6.034;2023-05-19T00:27:17;2;;;1.2;;
77953;SDS011;67151;52.544;6.034;2023-05-19T00:27:32;1.5;;;1;;
77953;SDS011;67151;52.544;6.034;2023-05-19T00:27:47;1.9;;;1;;
77953;SDS011;67151;52.544;6.034;2023-05-19T00:28:02;2.5;;;1.2;;
77953;SDS011;67151;52.544;6.034;2023-05-19T00:28:17;2.2;;;1.2;;
77953;SDS011;67151;52.544;6.034;2023-05-19T00:28:32;2.1;;;1.2;;
77953;SDS011;67151;52.544;6.034;2023-05-19T00:28:47;2.1;;;1.1;;
77953;SDS011;67151;52.544;6.034;2023-05-19T00:29:02;2.1;;;1.2;;
77953;SDS011;67151;52.544;6.034;2023-05-19T00:29:17;2.3;;;1.2;;
77953;SDS011;67151;52.544;6.034;2023-05-19T00:29:32;2.2;;;1.3;;
77953;SDS011;67151;52.544;6.034;2023-05-19T00:29:47;1.9;;;1.3;;
77953;SDS011;67151;52.544;6.034;2023-05-19T00:30:02;2.3;;;1.4;;
77953;SDS011;67151;52.544;6.034;2023-05-19T00:30:17;2.7;;;1.6;;
77953;SDS011;67151;52.544;6.034;2023-05-19T00:30:32;2.4;;;1.5;;
77953;SDS011;67151;52.544;6.034;2023-05-19T00:30:47;1.9;;;1.2;;
77953;SDS011;67151;52.544;6.034;2023-05-19T00:31:02;1.9;;;1.2;;
77953;SDS011;67151;52.544;6.034;2023-05-19T00:31:17;2.2;;;1.3;;
77953;SDS011;67151;52.544;6.034;2023-05-19T00:31:32;2.7;;;1.3;;
77953;SDS011;67151;52.544;6.034;2023-05-19T00:31:47;3.3;;;1.3;;
77953;SDS011;67151;52.544;6.034;2023-05-19T00:32:02;2.9;;;1.2;;
77953;SDS011;67151;52.544;6.034;2023-05-19T00:32:17;2;;;1.1;;
77953;SDS011;67151;52.544;6.034;2023-05-19T00:32:32;2;;;1.2;;
77953;SDS011;67151;52.544;6.034;2023-05-19T00:32:47;1.9;;;1.2;;
77953;SDS011;67151;52.544;6.034;2023-05-19T00:33:02;1.7;;;1.1;;
77953;SDS011;67151;52.544;6.034;2023-05-19T00:33:17;1.7;;;1.2;;
77953;SDS011;67151;52.544;6.034;2023-05-19T00:33:32;1.5;;;1.2;;
77953;SDS011;67151;52.544;6.034;2023-05-19T00:33:47;1.6;;;1.1;;
77953;SDS011;67151;52.544;6.034;2023-05-19T00:34:02;2.1;;;1.2;;
77953;SDS011;67151;52.544;6.034;2023-05-19T00:34:17;2.2;;;1.3;;
77953;SDS011;67151;52.544;6.034;2023-05-19T00:34:32;2;;;1.3;;
77953;SDS011;67151;52.544;6.034;2023-05-19T00:34:47;2.5;;;1.2;;
77953;SDS011;67151;52.544;6.034;2023-05-19T00:35:02;2.4;;;1.1;;
77953;SDS011;67151;52.544;6.034;2023-05-19T00:35:17;3.1;;;1.2;;
77953;SDS011;67151;52.544;6.034;2023-05-19T00:35:32;3.3;;;1.3;;
77953;SDS011;67151;52.544;6.034;2023-05-19T00:35:47;1.9;;;1.2;;
77953;SDS011;67151;52.544;6.034;2023-05-19T00:36:02;1.7;;;1.2;;
77953;SDS011;67151;52.544;6.034;2023-05-19T00:36:17;2.1;;;1.4;;
77953;SDS011;67151;52.544;6.034;2023-05-19T00:36:32;2.2;;;1.3;;
77953;SDS011;67151;52.544;6.034;2023-05-19T00:36:47;2.1;;;1.3;;
77953;SDS011;67151;52.544;6.034;2023-05-19T00:37:02;2.3;;;1.3;;
77953;SDS011;67151;52.544;6.034;2023-05-19T00:37:18;2.2;;;1.2;;
77953;SDS011;67151;52.544;6.034;2023-05-19T00:37:32;2.1;;;1.2;;
77953;SDS011;67151;52.544;6.034;2023-05-19T00:37:47;2.3;;;1.2;;
77953;SDS011;67151;52.544;6.034;2023-05-19T00:38:02;2;;;1.1;;
77953;SDS011;67151;52.544;6.034;2023-05-19T00:38:17;1.8;;;1.1;;
77953;SDS011;67151;52.544;6.034;2023-05-19T00:38:33;2.5;;;1.3;;
77953;SDS011;67151;52.544;6.034;2023-05-19T00:38:47;3.2;;;1.2;;
77953;SDS011;67151;52.544;6.034;2023-05-19T00:39:02;2.6;;;1;;
77953;SDS011;67151;52.544;6.034;2023-05-19T00:39:17;1.9;;;1.1;;
77953;SDS011;67151;52.544;6.034;2023-05-19T00:39:32;2.1;;;1.2;;
77953;SDS011;67151;52.544;6.034;2023-05-19T00:39:47;2.5;;;1.1;;
77953;SDS011;67151;52.544;6.034;2023-05-19T00:40:02;3.2;;;1.3;;
77953;SDS011;67151;52.544;6.034;2023-05-19T00:40:17;2.7;;;1.4;;
77953;SDS011;67151;52.544;6.034;2023-05-19T00:40:32;2.1;;;1.2;;
77953;SDS011;67151;52.544;6.034;2023-05-19T00:40:47;2.2;;;1.1;;
77953;SDS011;67151;52.544;6.034;2023-05-19T00:41:03;2.1;;;1.2;;
77953;SDS011;67151;52.544;6.034;2023-05-19T00:41:17;2.1;;;1.2;;
77953;SDS011;67151;52.544;6.034;2023-05-19T00:41:32;3.1;;;1.4;;
77953;SDS011;67151;52.544;6.034;2023-05-19T00:41:47;2.7;;;1.3;;
77953;SDS011;67151;52.544;6.034;2023-05-19T00:42:02;1.9;;;1.2;;
77953;SDS011;67151;52.544;6.034;2023-05-19T00:42:17;2.2;;;1.3;;
77953;SDS011;67151;52.544;6.034;2023-05-19T00:42:32;2.2;;;1.2;;
77953;SDS011;67151;52.544;6.034;2023-05-19T00:42:47;2.1;;;1.2;;
77953;SDS011;67151;52.544;6.034;2023-05-19T00:43:02;2.3;;;1.2;;
77953;SDS011;67151;52.544;6.034;2023-05-19T00:43:17;3.1;;;1.3;;
77953;SDS011;67151;52.544;6.034;2023-05-19T00:43:32;2.9;;;1.3;;
77953;SDS011;67151;52.544;6.034;2023-05-19T00:43:47;2.2;;;1.2;;
77953;SDS011;67151;52.544;6.034;2023-05-19T00:44:02;2;;;1.2;;
77953;SDS011;67151;52.544;6.034;2023-05-19T00:44:17;2;;;1.1;;
77953;SDS011;67151;52.544;6.034;2023-05-19T00:44:32;2.4;;;1.1;;
77953;SDS011;67151;52.544;6.034;2023-05-19T00:44:47;2.1;;;1.1;;
77953;SDS011;67151;52.544;6.034;2023-05-19T00:45:02;1.6;;;1;;
77953;SDS011;67151;52.544;6.034;2023-05-19T00:45:17;1.8;;;1.1;;
77953;SDS011;67151;52.544;6.034;2023-05-19T00:45:33;2.1;;;1.3;;
77953;SDS011;67151;52.544;6.034;2023-05-19T00:45:47;2;;;1.1;;
77953;SDS011;67151;52.544;6.034;2023-05-19T00:46:02;1.9;;;1.1;;
77953;SDS011;67151;52.544;6.034;2023-05-19T00:46:17;2;;;1.3;;
77953;SDS011;67151;52.544;6.034;2023-05-19T00:46:32;2.1;;;1.2;;
77953;SDS011;67151;52.544;6.034;2023-05-19T00:46:47;2.1;;;1;;
77953;SDS011;67151;52.544;6.034;2023-05-19T00:47:02;1.9;;;1.1;;
77953;SDS011;67151;52.544;6.034;2023-05-19T00:47:17;1.8;;;1.1;;
77953;SDS011;67151;52.544;6.034;2023-05-19T00:47:32;1.7;;;1.1;;
77953;SDS011;67151;52.544;6.034;2023-05-19T00:47:47;2.1;;;1.2;;
77953;SDS011;67151;52.544;6.034;2023-05-19T00:48:02;2.3;;;1.3;;
77953;SDS011;67151;52.544;6.034;2023-05-19T00:48:17;1.8;;;1.2;;
77953;SDS011;67151;52.544;6.034;2023-05-19T00:48:32;2;;;1.1;;
77953;SDS011;67151;52.544;6.034;2023-05-19T00:48:47;2.4;;;1.3;;
77953;SDS011;67151;52.544;6.034;2023-05-19T00:49:02;2;;;1.2;;
77953;SDS011;67151;52.544;6.034;2023-05-19T00:49:17;1.6;;;1.1;;
77953;SDS011;67151;52.544;6.034;2023-05-19T00:49:32;1.7;;;1.1;;
77953;SDS011;67151;52.544;6.034;2023-05-19T00:49:47;1.9;;;1.2;;
77953;SDS011;67151;52.544;6.034;2023-05-19T00:50:02;2.2;;;1.2;;
77953;SDS011;67151;52.544;6.034;2023-05-19T00:50:17;2.4;;;1.2;;
77953;SDS011;67151;52.544;6.034;2023-05-19T00:50:32;1.8;;;1;;
77953;SDS011;67151;52.544;6.034;2023-05-19T00:50:47;1.4;;;1;;
77953;SDS011;67151;52.544;6.034;2023-05-19T00:51:02;1.9;;;1.2;;
77953;SDS011;67151;52.544;6.034;2023-05-19T00:51:17;2.1;;;1.1;;
77953;SDS011;67151;52.544;6.034;2023-05-19T00:51:32;2;;;1.2;;
77953;SDS011;67151;52.544;6.034;2023-05-19T00:51:47;2.2;;;1.3;;
77953;SDS011;67151;52.544;6.034;2023-05-19T00:52:02;2.1;;;1.3;;
77953;SDS011;67151;52.544;6.034;2023-05-19T00:52:17;1.9;;;1.3;;
77953;SDS011;67151;52.544;6.034;2023-05-19T00:52:32;1.7;;;1.1;;
77953;SDS011;67151;52.544;6.034;2023-05-19T00:52:47;1.4;;;1;;
77953;SDS011;67151;52.544;6.034;2023-05-19T00:53:02;1.6;;;1.2;;
77953;SDS011;67151;52.544;6.034;2023-05-19T00:53:17;2.5;;;1.3;;
77953;SDS011;67151;52.544;6.034;2023-05-19T00:53:32;2.7;;;1.2;;
77953;SDS011;67151;52.544;6.034;2023-05-19T00:53:47;1.9;;;1;;
77953;SDS011;67151;52.544;6.034;2023-05-19T00:54:04;1.6;;;1;;
77953;SDS011;67151;52.544;6.034;2023-05-19T00:54:17;2;;;1.1;;
77953;SDS011;67151;52.544;6.034;2023-05-19T00:54:32;2.4;;;1.1;;
77953;SDS011;67151;52.544;6.034;2023-05-19T00:54:47;2.2;;;1.2;;
77953;SDS011;67151;52.544;6.034;2023-05-19T00:55:02;1.8;;;1.3;;
77953;SDS011;67151;52.544;6.034;2023-05-19T00:55:17;1.7;;;1.3;;
77953;SDS011;67151;52.544;6.034;2023-05-19T00:55:32;1.5;;;1.1;;
77953;SDS011;67151;52.544;6.034;2023-05-19T00:55:47;2;;;1.2;;
77953;SDS011;67151;52.544;6.034;2023-05-19T00:56:02;1.9;;;1.2;;
77953;SDS011;67151;52.544;6.034;2023-05-19T00:56:17;1.7;;;1.2;;
77953;SDS011;67151;52.544;6.034;2023-05-19T00:56:32;1.9;;;1.2;;
77953;SDS011;67151;52.544;6.034;2023-05-19T00:56:47;2.2;;;1.2;;
77953;SDS011;67151;52.544;6.034;2023-05-19T00:57:02;2.5;;;1.3;;
77953;SDS011;67151;52.544;6.034;2023-05-19T00:57:17;2.3;;;1.2;;
77953;SDS011;67151;52.544;6.034;2023-05-19T00:57:32;2.4;;;1.1;;
77953;SDS011;67151;52.544;6.034;2023-05-19T00:57:47;2.1;;;1.1;;
77953;SDS011;67151;52.544;6.034;2023-05-19T00:58:03;1.9;;;1.3;;
77953;SDS011;67151;52.544;6.034;2023-05-19T00:58:17;2.5;;;1.3;;
77953;SDS011;67151;52.544;6.034;2023-05-19T00:58:32;2.3;;;1.2;;
77953;SDS011;67151;52.544;6.034;2023-05-19T00:58:48;2.1;;;1.2;;
77953;SDS011;67151;52.544;6.034;2023-05-19T00:59:02;2;;;1.2;;
77953;SDS011;67151;52.544;6.034;2023-05-19T00:59:17;2;;;1.2;;
77953;SDS011;67151;52.544;6.034;2023-05-19T00:59:32;2.1;;;1.1;;
77953;SDS011;67151;52.544;6.034;2023-05-19T00:59:47;1.8;;;1.1;;
77953;SDS011;67151;52.544;6.034;2023-05-19T01:00:02;1.5;;;1.1;;
77953;SDS011;67151;52.544;6.034;2023-05-19T01:00:17;1.8;;;1.2;;
77953;SDS011;67151;52.544;6.034;2023-05-19T01:00:32;1.8;;;1.1;;
77953;SDS011;67151;52.544;6.034;2023-05-19T01:00:47;1.9;;;1.1;;
77953;SDS011;67151;52.544;6.034;2023-05-19T01:01:02;2.1;;;1.3;;
77953;SDS011;67151;52.544;6.034;2023-05-19T01:01:17;1.9;;;1.2;;
77953;SDS011;67151;52.544;6.034;2023-05-19T01:01:32;2;;;1.1;;
77953;SDS011;67151;52.544;6.034;2023-05-19T01:01:47;2.2;;;1.2;;
77953;SDS011;67151;52.544;6.034;2023-05-19T01:02:02;2.5;;;1.3;;
77953;SDS011;67151;52.544;6.034;2023-05-19T01:02:17;2.4;;;1.2;;
77953;SDS011;67151;52.544;6.034;2023-05-19T01:02:33;2.3;;;1.4;;
77953;SDS011;67151;52.544;6.034;2023-05-19T01:02:47;2.1;;;1.3;;
77953;SDS011;67151;52.544;6.034;2023-05-19T01:03:02;1.9;;;1;;
77953;SDS011;67151;52.544;6.034;2023-05-19T01:03:17;1.9;;;1;;
77953;SDS011;67151;52.544;6.034;2023-05-19T01:03:33;1.6;;;1.1;;
77953;SDS011;67151;52.544;6.034;2023-05-19T01:03:47;2;;;1.2;;
77953;SDS011;67151;52.544;6.034;2023-05-19T01:04:02;2;;;1.1;;
77953;SDS011;67151;52.544;6.034;2023-05-19T01:04:17;1.8;;;1.2;;
77953;SDS011;67151;52.544;6.034;2023-05-19T01:04:33;2;;;1.2;;
77953;SDS011;67151;52.544;6.034;2023-05-19T01:04:47;1.7;;;1.1;;
77953;SDS011;67151;52.544;6.034;2023-05-19T01:05:02;1.5;;;1.1;;
77953;SDS011;67151;52.544;6.034;2023-05-19T01:05:17;2.3;;;1.1;;
77953;SDS011;67151;52.544;6.034;2023-05-19T01:05:32;2.1;;;1.1;;
77953;SDS011;67151;52.544;6.034;2023-05-19T01:05:47;1.7;;;1.1;;
77953;SDS011;67151;52.544;6.034;2023-05-19T01:06:03;2.5;;;1.1;;
77953;SDS011;67151;52.544;6.034;2023-05-19T01:06:17;2.8;;;1.2;;
77953;SDS011;67151;52.544;6.034;2023-05-19T01:06:32;2.3;;;1.3;;
77953;SDS011;67151;52.544;6.034;2023-05-19T01:06:47;1.8;;;1.2;;
77953;SDS011;67151;52.544;6.034;2023-05-19T01:07:02;1.6;;;1;;
77953;SDS011;67151;52.544;6.034;2023-05-19T01:07:17;1.8;;;1.1;;
77953;SDS011;67151;52.544;6.034;2023-05-19T01:07:32;2;;;1.1;;
77953;SDS011;67151;52.544;6.034;2023-05-19T01:07:47;2.3;;;1.1;;
77953;SDS011;67151;52.544;6.034;2023-05-19T01:08:02;2.4;;;1.2;;
77953;SDS011;67151;52.544;6.034;2023-05-19T01:08:18;2;;;1.3;;
77953;SDS011;67151;52.544;6.034;2023-05-19T01:08:33;2.4;;;1.1;;
77953;SDS011;67151;52.544;6.034;2023-05-19T01:08:47;2.2;;;1;;
77953;SDS011;67151;52.544;6.034;2023-05-19T01:09:02;1.6;;;1;;
77953;SDS011;67151;52.544;6.034;2023-05-19T01:09:17;1.6;;;1.1;;
77953;SDS011;67151;52.544;6.034;2023-05-19T01:09:32;1.8;;;1.2;;
77953;SDS011;67151;52.544;6.034;2023-05-19T01:09:47;1.9;;;1.3;;
77953;SDS011;67151;52.544;6.034;2023-05-19T01:10:03;1.8;;;1.3;;
77953;SDS011;67151;52.544;6.034;2023-05-19T01:10:17;2.3;;;1.3;;
77953;SDS011;67151;52.544;6.034;2023-05-19T01:10:32;2.1;;;1.1;;
77953;SDS011;67151;52.544;6.034;2023-05-19T01:10:47;1.6;;;1;;
77953;SDS011;67151;52.544;6.034;2023-05-19T01:11:02;2.2;;;1.1;;
77953;SDS011;67151;52.544;6.034;2023-05-19T01:11:17;2.3;;;1;;
77953;SDS011;67151;52.544;6.034;2023-05-19T01:11:32;2.1;;;1.1;;
77953;SDS011;67151;52.544;6.034;2023-05-19T01:11:47;1.7;;;1.2;;
77953;SDS011;67151;52.544;6.034;2023-05-19T01:12:02;1.8;;;1.1;;
77953;SDS011;67151;52.544;6.034;2023-05-19T01:12:17;1.8;;;1.1;;
77953;SDS011;67151;52.544;6.034;2023-05-19T01:12:32;2.1;;;1.3;;
77953;SDS011;67151;52.544;6.034;2023-05-19T01:12:47;2.4;;;1.4;;
77953;SDS011;67151;52.544;6.034;2023-05-19T01:13:02;2.5;;;1.3;;
77953;SDS011;67151;52.544;6.034;2023-05-19T01:13:17;2.2;;;1.2;;
77953;SDS011;67151;52.544;6.034;2023-05-19T01:13:32;1.5;;;1;;
77953;SDS011;67151;52.544;6.034;2023-05-19T01:13:47;2.2;;;1.1;;
77953;SDS011;67151;52.544;6.034;2023-05-19T01:14:02;2.2;;;1.1;;
77953;SDS011;67151;52.544;6.034;2023-05-19T01:14:17;1.5;;;1;;
77953;SDS011;67151;52.544;6.034;2023-05-19T01:14:32;1.4;;;1;;
77953;SDS011;67151;52.544;6.034;2023-05-19T01:14:47;1.5;;;1.1;;
77953;SDS011;67151;52.544;6.034;2023-05-19T01:15:02;1.8;;;1.1;;
77953;SDS011;67151;52.544;6.034;2023-05-19T01:15:18;2.4;;;1.2;;
77953;SDS011;67151;52.544;6.034;2023-05-19T01:15:33;2.2;;;1.2;;
77953;SDS011;67151;52.544;6.034;2023-05-19T01:15:51;1.6;;;1;;
77953;SDS011;67151;52.544;6.034;2023-05-19T01:16:03;1.9;;;1;;
77953;SDS011;67151;52.544;6.034;2023-05-19T01:16:19;2.4;;;1.2;;
77953;SDS011;67151;52.544;6.034;2023-05-19T01:16:33;2.5;;;1.3;;
77953;SDS011;67151;52.544;6.034;2023-05-19T01:16:49;2.6;;;1.4;;
77953;SDS011;67151;52.544;6.034;2023-05-19T01:17:03;2.3;;;1.2;;
77953;SDS011;67151;52.544;6.034;2023-05-19T01:17:23;1.7;;;1.1;;
77953;SDS011;67151;52.544;6.034;2023-05-19T01:17:33;1.6;;;1.1;;
77953;SDS011;67151;52.544;6.034;2023-05-19T01:17:49;1.8;;;0.9;;
77953;SDS011;67151;52.544;6.034;2023-05-19T01:18:04;2;;;1;;
77953;SDS011;67151;52.544;6.034;2023-05-19T01:18:23;2;;;1.1;;
77953;SDS011;67151;52.544;6.034;2023-05-19T01:18:37;1.9;;;1.1;;
77953;SDS011;67151;52.544;6.034;2023-05-19T01:18:49;1.7;;;1;;
77953;SDS011;67151;52.544;6.034;2023-05-19T01:19:04;2.1;;;1.1;;
77953;SDS011;67151;52.544;6.034;2023-05-19T01:19:22;2;;;1.1;;
77953;SDS011;67151;52.544;6.034;2023-05-19T01:19:39;1.7;;;1.1;;
77953;SDS011;67151;52.544;6.034;2023-05-19T01:19:51;2;;;1.2;;
77953;SDS011;67151;52.544;6.034;2023-05-19T01:20:05;1.9;;;1.2;;
77953;SDS011;67151;52.544;6.034;2023-05-19T01:20:18;1.7;;;1.1;;
77953;SDS011;67151;52.544;6.034;2023-05-19T01:20:34;1.6;;;1;;
77953;SDS011;67151;52.544;6.034;2023-05-19T01:20:51;2.1;;;1.1;;
77953;SDS011;67151;52.544;6.034;2023-05-19T01:21:06;2.4;;;1.1;;
77953;SDS011;67151;52.544;6.034;2023-05-19T01:21:23;2.6;;;1.2;;
77953;SDS011;67151;52.544;6.034;2023-05-19T01:21:39;2.5;;;1.3;;
77953;SDS011;67151;52.544;6.034;2023-05-19T01:21:55;1.8;;;1.1;;
77953;SDS011;67151;52.544;6.034;2023-05-19T01:22:06;1.7;;;1.1;;
77953;SDS011;67151;52.544;6.034;2023-05-19T01:22:31;1.6;;;1.1;;
77953;SDS011;67151;52.544;6.034;2023-05-19T01:22:53;1.8;;;1;;
77953;SDS011;67151;52.544;6.034;2023-05-19T01:23:01;2;;;1.1;;
77953;SDS011;67151;52.544;6.034;2023-05-19T01:23:08;2;;;1.1;;
77953;SDS011;67151;52.544;6.034;2023-05-19T01:23:25;2.1;;;1.1;;
77953;SDS011;67151;52.544;6.034;2023-05-19T01:23:32;2.2;;;1.1;;
77953;SDS011;67151;52.544;6.034;2023-05-19T01:23:49;2.5;;;1.1;;
77953;SDS011;67151;52.544;6.034;2023-05-19T01:24:07;2.1;;;1.1;;
77953;SDS011;67151;52.544;6.034;2023-05-19T01:24:22;1.5;;;1.1;;
77953;SDS011;67151;52.544;6.034;2023-05-19T01:24:42;2.1;;;1.2;;
77953;SDS011;67151;52.544;6.034;2023-05-19T01:24:59;2.3;;;1.2;;
77953;SDS011;67151;52.544;6.034;2023-05-19T01:25:07;2.1;;;1.3;;
77953;SDS011;67151;52.544;6.034;2023-05-19T01:25:36;2;;;1.3;;
77953;SDS011;67151;52.544;6.034;2023-05-19T01:25:53;1.8;;;1.3;;
77953;SDS011;67151;52.544;6.034;2023-05-19T01:25:55;2.2;;;1.3;;
77953;SDS011;67151;52.544;6.034;2023-05-19T01:26:07;1.6;;;1.1;;
77953;SDS011;67151;52.544;6.034;2023-05-19T01:26:25;1.8;;;1;;
77953;SDS011;67151;52.544;6.034;2023-05-19T01:26:40;2;;;1;;
77953;SDS011;67151;52.544;6.034;2023-05-19T01:26:54;2.2;;;1;;
77953;SDS011;67151;52.544;6.034;2023-05-19T01:27:08;2.5;;;1.1;;
77953;SDS011;67151;52.544;6.034;2023-05-19T01:27:22;2;;;1.1;;
77953;SDS011;67151;52.544;6.034;2023-05-19T01:27:38;1.5;;;1.1;;
77953;SDS011;67151;52.544;6.034;2023-05-19T01:28:01;1.5;;;1.1;;
77953;SDS011;67151;52.544;6.034;2023-05-19T01:28:14;1.9;;;1.1;;
77953;SDS011;67151;52.544;6.034;2023-05-19T01:28:40;2.5;;;1;;
77953;SDS011;67151;52.544;6.034;2023-05-19T01:28:40;2.6;;;1;;
77953;SDS011;67151;52.544;6.034;2023-05-19T01:29:00;1.6;;;1.1;;
77953;SDS011;67151;52.544;6.034;2023-05-19T01:29:25;1.7;;;1.1;;
77953;SDS011;67151;52.544;6.034;2023-05-19T01:29:40;1.6;;;1.1;;
77953;SDS011;67151;52.544;6.034;2023-05-19T01:29:40;2.1;;;1.1;;
77953;SDS011;67151;52.544;6.034;2023-05-19T01:29:52;1.8;;;1;;
77953;SDS011;67151;52.544;6.034;2023-05-19T01:30:21;1.3;;;0.9;;
77953;SDS011;67151;52.544;6.034;2023-05-19T01:30:21;1.3;;;0.9;;
77953;SDS011;67151;52.544;6.034;2023-05-19T01:30:32;1.3;;;1;;
77953;SDS011;67151;52.544;6.034;2023-05-19T01:30:48;1.7;;;0.8;;
77953;SDS011;67151;52.544;6.034;2023-05-19T01:31:02;1.7;;;0.8;;
77953;SDS011;67151;52.544;6.034;2023-05-19T01:31:17;1.1;;;0.9;;
77953;SDS011;67151;52.544;6.034;2023-05-19T01:31:32;1.7;;;1.1;;
77953;SDS011;67151;52.544;6.034;2023-05-19T01:31:47;2.1;;;1.3;;
77953;SDS011;67151;52.544;6.034;2023-05-19T01:32:02;2.3;;;1.2;;
77953;SDS011;67151;52.544;6.034;2023-05-19T01:32:18;2.1;;;1.1;;
77953;SDS011;67151;52.544;6.034;2023-05-19T01:32:32;1.9;;;1.2;;
77953;SDS011;67151;52.544;6.034;2023-05-19T01:32:47;1.6;;;1.2;;
77953;SDS011;67151;52.544;6.034;2023-05-19T01:33:03;1.2;;;1;;
77953;SDS011;67151;52.544;6.034;2023-05-19T01:33:17;1.9;;;1.1;;
77953;SDS011;67151;52.544;6.034;2023-05-19T01:33:33;2.2;;;1.1;;
77953;SDS011;67151;52.544;6.034;2023-05-19T01:33:47;1.8;;;1.1;;